createdAt,value
2018-07-10T00:03:12.762Z,2.45
2018-07-10T00:07:57.671Z,1.60
2018-07-10T00:10:37.082Z,1.90
2018-07-10T00:13:05.292Z,1.50
2018-07-10T00:15:33.495Z,1.60
2018-07-10T00:18:01.859Z,2.12
2018-07-10T00:20:30.003Z,1.85
2018-07-10T00:22:58.357Z,2.00
2018-07-10T00:25:26.517Z,1.72
2018-07-10T00:27:54.764Z,1.80
2018-07-10T00:30:23.014Z,1.50
2018-07-10T00:32:51.314Z,1.40
2018-07-10T00:35:19.476Z,1.52
2018-07-10T00:38:58.265Z,1.50
2018-07-10T00:41:33.805Z,1.75
2018-07-10T00:44:02.803Z,1.50
2018-07-10T00:46:32.767Z,1.35
2018-07-10T00:49:00.933Z,2.10
2018-07-10T00:51:30.433Z,2.02
2018-07-10T00:53:58.593Z,1.57
2018-07-10T00:56:26.740Z,1.70
2018-07-10T00:58:55.866Z,2.10
2018-07-10T01:01:24.826Z,1.95
2018-07-10T01:03:53.089Z,1.70
2018-07-10T01:06:21.689Z,1.65
2018-07-10T01:08:49.845Z,1.92
2018-07-10T01:11:18.840Z,1.35
2018-07-10T01:13:47.953Z,1.50
2018-07-10T01:16:19.367Z,2.00
2018-07-10T01:18:48.395Z,1.47
2018-07-10T01:21:22.089Z,1.85
2018-07-10T01:24:02.055Z,1.67
2018-07-10T01:26:37.770Z,1.70
2018-07-10T01:29:12.298Z,1.80
2018-07-10T01:31:43.244Z,1.60
2018-07-10T01:34:11.440Z,2.05
2018-07-10T01:36:39.643Z,1.95
2018-07-10T01:39:07.813Z,1.72
2018-07-10T01:41:36.561Z,2.15
2018-07-10T01:44:04.765Z,1.57
2018-07-10T01:46:32.933Z,1.60
2018-07-10T01:49:01.139Z,1.70
2018-07-10T01:51:30.177Z,1.92
2018-07-10T01:53:58.605Z,1.70
2018-07-10T01:56:26.881Z,1.72
2018-07-10T01:58:55.006Z,1.52
2018-07-10T02:01:23.270Z,1.60
2018-07-10T02:03:51.473Z,2.20
2018-07-10T02:06:19.637Z,1.70
2018-07-10T02:08:47.826Z,1.82
2018-07-10T02:11:15.981Z,1.72
2018-07-10T02:13:44.073Z,1.50
2018-07-10T02:16:12.417Z,1.35
2018-07-10T02:18:40.585Z,1.55
2018-07-10T02:21:09.458Z,1.75
2018-07-10T02:23:39.706Z,2.10
2018-07-10T02:26:28.066Z,1.50
2018-07-10T02:28:56.921Z,1.98
2018-07-10T02:31:25.077Z,1.67
2018-07-10T02:33:53.706Z,1.50
2018-07-10T02:36:23.009Z,1.70
2018-07-10T02:38:55.418Z,1.82
2018-07-10T02:41:23.625Z,1.87
2018-07-10T02:43:57.049Z,1.50
2018-07-10T02:46:25.430Z,1.57
2018-07-10T02:48:55.013Z,1.70
2018-07-10T02:51:23.181Z,1.42
2018-07-10T02:53:51.344Z,1.90
2018-07-10T02:56:20.590Z,1.45
2018-07-10T02:58:49.760Z,1.70
2018-07-10T03:01:18.736Z,1.70
2018-07-10T03:03:47.847Z,1.45
2018-07-10T03:06:16.022Z,1.65
2018-07-10T03:08:44.183Z,1.60
2018-07-10T03:11:13.367Z,1.57
2018-07-10T03:13:42.102Z,1.90
2018-07-10T03:16:10.531Z,1.50
2018-07-10T03:18:39.141Z,1.60
2018-07-10T03:21:07.318Z,2.22
2018-07-10T03:23:35.482Z,1.87
2018-07-10T03:26:03.685Z,1.57
2018-07-10T03:28:31.842Z,1.70
2018-07-10T03:31:00.570Z,1.80
2018-07-10T03:33:28.733Z,1.75
2018-07-10T03:35:56.929Z,1.95
2018-07-10T03:38:25.102Z,1.67
2018-07-10T03:40:53.336Z,1.60
2018-07-10T03:43:21.477Z,2.00
2018-07-10T03:45:49.770Z,1.98
2018-07-10T03:48:18.097Z,1.67
2018-07-10T03:50:46.297Z,1.60
2018-07-10T03:53:14.481Z,1.60
2018-07-10T03:55:42.642Z,2.10
2018-07-10T03:58:10.844Z,1.92
2018-07-10T04:00:39.002Z,2.00
2018-07-10T04:03:07.167Z,1.70
2018-07-10T04:05:35.417Z,2.25
2018-07-10T04:08:04.589Z,1.70
2018-07-10T04:10:34.392Z,2.15
2018-07-10T04:13:10.022Z,1.80
2018-07-10T04:15:38.798Z,1.60
2018-07-10T04:18:11.909Z,1.40
2018-07-10T04:20:48.420Z,1.75
2018-07-10T04:23:16.589Z,1.62
2018-07-10T04:25:49.730Z,1.80
2018-07-10T04:28:23.945Z,1.82
2018-07-10T04:31:05.444Z,2.50
2018-07-10T04:33:33.629Z,1.98
2018-07-10T04:36:01.853Z,1.65
2018-07-10T04:38:30.026Z,1.85
2018-07-10T04:41:07.966Z,1.37
2018-07-10T04:43:37.570Z,1.62
2018-07-10T04:46:05.730Z,1.77
2018-07-10T04:48:39.218Z,1.95
2018-07-10T04:51:13.953Z,1.90
2018-07-10T04:53:45.030Z,1.62
2018-07-10T04:56:14.077Z,1.90
2018-07-10T04:58:45.632Z,1.57
2018-07-10T05:01:14.634Z,1.62
2018-07-10T05:03:43.654Z,1.75
2018-07-10T05:06:11.826Z,1.62
2018-07-10T05:08:40.960Z,1.70
2018-07-10T05:11:09.128Z,1.75
2018-07-10T05:13:37.318Z,1.52
2018-07-10T05:16:06.672Z,1.45
2018-07-10T05:18:35.672Z,1.50
2018-07-10T05:21:09.253Z,1.77
2018-07-10T05:23:37.501Z,1.87
2018-07-10T05:26:05.682Z,1.47
2018-07-10T05:28:33.878Z,1.45
2018-07-10T05:31:03.417Z,1.77
2018-07-10T05:33:31.812Z,1.92
2018-07-10T05:36:01.293Z,2.45
2018-07-10T05:38:35.416Z,1.65
2018-07-10T05:41:04.217Z,1.72
2018-07-10T05:43:34.590Z,1.90
2018-07-10T05:46:02.756Z,1.65
2018-07-10T05:48:30.937Z,1.82
2018-07-10T05:50:59.097Z,1.67
2018-07-10T05:53:27.252Z,1.70
2018-07-10T05:55:55.478Z,2.00
2018-07-10T05:58:23.739Z,1.50
2018-07-10T06:00:51.921Z,1.70
2018-07-10T06:03:20.087Z,1.67
2018-07-10T06:05:48.252Z,1.65
2018-07-10T06:08:16.417Z,2.22
2018-07-10T06:10:45.674Z,1.82
2018-07-10T06:13:14.782Z,2.10
2018-07-10T06:15:43.665Z,1.42
2018-07-10T06:18:11.877Z,2.00
2018-07-10T06:20:41.474Z,1.65
2018-07-10T06:23:09.679Z,1.70
2018-07-10T06:25:37.868Z,1.60
2018-07-10T06:28:08.645Z,1.70
2018-07-10T06:30:38.201Z,1.90
2018-07-10T06:33:28.008Z,1.80
2018-07-10T06:36:32.968Z,1.92
2018-07-10T06:39:12.989Z,1.60
2018-07-10T06:41:49.671Z,1.82
2018-07-10T06:44:18.124Z,1.65
2018-07-10T06:46:49.727Z,1.50
2018-07-10T06:49:37.643Z,1.95
2018-07-10T06:52:07.950Z,1.57
2018-07-10T06:54:51.997Z,2.10
2018-07-10T06:57:27.445Z,2.00
2018-07-10T06:59:56.045Z,2.60
2018-07-10T07:02:24.614Z,1.55
2018-07-10T07:04:52.568Z,2.27
2018-07-10T07:07:20.740Z,1.77
2018-07-10T07:09:48.981Z,2.12
2018-07-10T07:12:17.183Z,2.58
2018-07-10T07:14:45.353Z,2.10
2018-07-10T07:17:13.780Z,1.90
2018-07-10T07:19:42.062Z,1.85
2018-07-10T07:22:10.236Z,1.87
2018-07-10T07:24:38.403Z,2.33
2018-07-10T07:27:06.884Z,2.25
2018-07-10T07:29:35.077Z,2.30
2018-07-10T07:32:03.267Z,2.65
2018-07-10T07:34:31.434Z,2.40
2018-07-10T07:36:59.593Z,1.85
2018-07-10T07:39:28.102Z,2.00
2018-07-10T07:41:56.252Z,2.25
2018-07-10T07:44:24.568Z,2.47
2018-07-10T07:46:52.759Z,2.55
2018-07-10T07:49:21.381Z,2.87
2018-07-10T07:51:49.549Z,2.25
2018-07-10T07:54:18.068Z,2.58
2018-07-10T07:56:46.261Z,2.22
2018-07-10T07:59:14.493Z,2.27
2018-07-10T08:01:42.725Z,2.60
2018-07-10T08:04:11.082Z,2.65
2018-07-10T08:06:39.270Z,2.50
2018-07-10T08:09:08.300Z,2.40
2018-07-10T08:11:36.467Z,2.30
2018-07-10T08:14:04.718Z,2.20
2018-07-10T08:16:32.884Z,2.45
2018-07-10T08:19:01.262Z,2.20
2018-07-10T08:21:29.737Z,2.12
2018-07-10T08:23:57.957Z,2.37
2018-07-10T08:26:26.144Z,2.30
2018-07-10T08:28:54.321Z,2.33
2018-07-10T08:31:22.578Z,2.30
2018-07-10T08:33:50.844Z,2.33
2018-07-10T08:36:18.946Z,3.00
2018-07-10T08:38:47.137Z,2.62
2018-07-10T08:41:22.100Z,3.50
2018-07-10T08:43:50.330Z,2.92
2018-07-10T08:46:22.410Z,3.08
2018-07-10T08:48:50.613Z,3.20
2018-07-10T08:51:18.773Z,2.70
2018-07-10T08:53:47.197Z,3.72
2018-07-10T08:56:15.429Z,3.15
2018-07-10T08:58:43.618Z,3.35
2018-07-10T09:01:11.821Z,3.17
2018-07-10T09:03:40.061Z,2.95
2018-07-10T09:06:08.300Z,3.52
2018-07-10T09:08:36.524Z,3.27
2018-07-10T09:11:04.729Z,3.08
2018-07-10T09:13:32.961Z,3.17
2018-07-10T09:16:00.901Z,3.47
2018-07-10T09:18:29.412Z,3.80
2018-07-10T09:20:57.629Z,3.42
2018-07-10T09:23:25.778Z,3.60
2018-07-10T09:25:58.233Z,3.40
2018-07-10T09:28:27.930Z,3.12
2018-07-10T09:30:56.189Z,3.00
2018-07-10T09:33:24.393Z,3.60
2018-07-10T09:35:52.560Z,3.37
2018-07-10T09:38:20.754Z,3.30
2018-07-10T09:40:49.065Z,2.92
2018-07-10T09:43:17.385Z,3.45
2018-07-10T09:45:45.609Z,3.70
2018-07-10T09:48:13.785Z,3.33
2018-07-10T09:50:42.026Z,4.42
2018-07-10T09:53:10.207Z,3.98
2018-07-10T09:55:38.426Z,3.95
2018-07-10T09:58:07.754Z,4.33
2018-07-10T10:00:42.336Z,4.35
2018-07-10T10:03:10.679Z,3.62
2018-07-10T10:05:41.493Z,3.72
2018-07-10T10:08:09.991Z,4.20
2018-07-10T10:10:38.452Z,3.80
2018-07-10T10:13:06.616Z,3.90
2018-07-10T10:15:35.823Z,3.75
2018-07-10T10:18:05.989Z,3.98
2018-07-10T10:20:36.238Z,3.85
2018-07-10T10:23:04.766Z,3.72
2018-07-10T10:25:34.428Z,4.35
2018-07-10T10:28:04.085Z,4.12
2018-07-10T10:30:32.313Z,3.92
2018-07-10T10:33:00.477Z,11.80
2018-07-10T10:35:29.338Z,5.62
2018-07-10T10:37:57.632Z,4.35
2018-07-10T10:40:26.062Z,3.87
2018-07-10T10:42:54.225Z,4.17
2018-07-10T10:45:22.454Z,4.47
2018-07-10T10:47:50.616Z,4.25
2018-07-10T10:50:18.861Z,4.65
2018-07-10T10:52:48.317Z,4.83
2018-07-10T10:55:16.498Z,4.70
2018-07-10T10:57:44.684Z,4.95
2018-07-10T11:00:12.838Z,5.30
2018-07-10T11:02:41.083Z,4.83
2018-07-10T11:05:09.182Z,4.87
2018-07-10T11:07:37.957Z,5.40
2018-07-10T11:10:06.233Z,4.85
2018-07-10T11:12:34.553Z,5.10
2018-07-10T11:15:03.724Z,4.80
2018-07-10T11:17:36.193Z,5.20
2018-07-10T11:20:05.337Z,5.28
2018-07-10T11:22:38.780Z,5.85
2018-07-10T11:25:08.104Z,5.15
2018-07-10T11:27:41.356Z,5.62
2018-07-10T11:30:09.610Z,5.33
2018-07-10T11:32:38.199Z,6.05
2018-07-10T11:35:06.460Z,5.67
2018-07-10T11:37:34.702Z,6.40
2018-07-10T11:40:02.980Z,5.70
2018-07-10T11:42:31.153Z,5.92
2018-07-10T11:44:59.317Z,7.30
2018-07-10T11:47:27.537Z,6.75
2018-07-10T11:49:55.981Z,6.90
2018-07-10T11:52:24.202Z,6.37
2018-07-10T11:54:52.441Z,6.70
2018-07-10T11:57:20.932Z,7.15
2018-07-10T11:59:49.102Z,7.47
2018-07-10T12:02:17.387Z,7.42
2018-07-10T12:04:45.561Z,8.60
2018-07-10T12:07:13.728Z,7.62
2018-07-10T12:09:53.397Z,8.30
2018-07-10T12:12:21.656Z,7.92
2018-07-10T12:14:49.822Z,8.45
2018-07-10T12:17:18.035Z,7.90
2018-07-10T12:19:46.210Z,8.25
2018-07-10T12:22:14.375Z,7.35
2018-07-10T12:24:42.543Z,7.03
2018-07-10T12:27:10.716Z,7.35
2018-07-10T12:29:38.967Z,7.00
2018-07-10T12:32:07.167Z,6.80
2018-07-10T12:34:35.313Z,7.05
2018-07-10T12:37:03.542Z,6.55
2018-07-10T12:39:31.709Z,6.58
2018-07-10T12:41:59.870Z,6.25
2018-07-10T12:44:28.025Z,6.42
2018-07-10T12:46:56.217Z,7.10
2018-07-10T12:49:24.428Z,6.70
2018-07-10T12:51:52.853Z,6.22
2018-07-10T12:54:21.019Z,6.90
2018-07-10T12:56:49.199Z,6.62
2018-07-10T12:59:17.367Z,6.30
2018-07-10T13:01:45.554Z,6.53
2018-07-10T13:04:13.740Z,6.72
2018-07-10T13:06:41.906Z,6.67
2018-07-10T13:09:10.217Z,11.83
2018-07-10T13:11:38.526Z,7.78
2018-07-10T13:14:06.678Z,6.62
2018-07-10T13:16:34.858Z,6.00
2018-07-10T13:19:03.026Z,7.53
2018-07-10T13:21:31.244Z,6.42
2018-07-10T13:23:59.417Z,7.37
2018-07-10T13:26:27.638Z,7.22
2018-07-10T13:28:55.823Z,6.75
2018-07-10T13:31:24.028Z,6.53
2018-07-10T13:33:52.242Z,7.40
2018-07-10T13:36:20.469Z,7.40
2018-07-10T13:38:48.634Z,6.70
2018-07-10T13:41:17.687Z,7.62
2018-07-10T13:43:45.857Z,7.33
2018-07-10T13:46:14.018Z,9.68
2018-07-10T13:48:42.422Z,7.78
2018-07-10T13:51:10.574Z,9.60
2018-07-10T13:53:38.733Z,6.67
2018-07-10T13:56:06.914Z,6.12
2018-07-10T13:58:35.345Z,7.05
2018-07-10T14:01:06.844Z,7.03
2018-07-10T14:03:35.742Z,7.33
2018-07-10T14:06:04.467Z,7.37
2018-07-10T14:08:33.021Z,6.40
2018-07-10T14:11:01.252Z,6.42
2018-07-10T14:13:29.502Z,6.80
2018-07-10T14:15:57.946Z,6.95
2018-07-10T14:18:26.985Z,7.08
2018-07-10T14:21:04.837Z,6.70
2018-07-10T14:23:35.472Z,6.97
2018-07-10T14:26:04.094Z,6.53
2018-07-10T14:28:32.278Z,7.67
2018-07-10T14:31:01.501Z,7.95
2018-07-10T14:33:30.350Z,7.62
2018-07-10T14:35:58.609Z,7.37
2018-07-10T14:38:28.709Z,7.45
2018-07-10T14:41:00.142Z,8.73
2018-07-10T14:43:33.017Z,7.90
2018-07-10T14:46:03.374Z,8.45
2018-07-10T14:48:33.917Z,8.40
2018-07-10T14:51:02.108Z,7.42
2018-07-10T14:53:30.271Z,8.78
2018-07-10T14:55:58.486Z,7.65
2018-07-10T14:58:26.674Z,7.80
2018-07-10T15:00:55.191Z,9.08
2018-07-10T15:03:23.346Z,9.20
2018-07-10T15:05:51.505Z,8.50
2018-07-10T15:08:19.678Z,8.83
2018-07-10T15:10:47.873Z,8.28
2018-07-10T15:13:16.066Z,9.40
2018-07-10T15:15:49.056Z,8.33
2018-07-10T15:18:48.013Z,9.18
2018-07-10T15:21:16.201Z,9.90
2018-07-10T15:23:44.382Z,8.73
2018-07-10T15:26:12.583Z,7.53
2018-07-10T15:28:40.801Z,6.87
2018-07-10T15:31:08.965Z,6.47
2018-07-10T15:33:37.204Z,6.30
2018-07-10T15:36:05.479Z,7.35
2018-07-10T15:38:33.665Z,6.50
2018-07-10T15:41:01.844Z,6.95
2018-07-10T15:43:30.022Z,7.28
2018-07-10T15:45:58.218Z,7.85
2018-07-10T15:48:26.726Z,7.42
2018-07-10T15:50:55.189Z,7.60
2018-07-10T15:53:23.362Z,6.95
2018-07-10T15:55:51.554Z,7.72
2018-07-10T15:58:19.719Z,6.25
2018-07-10T16:00:47.866Z,7.47
2018-07-10T16:03:16.071Z,7.33
2018-07-10T16:05:44.377Z,5.90
2018-07-10T16:08:14.970Z,5.78
2018-07-10T16:10:45.215Z,5.55
2018-07-10T16:13:13.435Z,5.15
2018-07-10T16:15:41.594Z,6.12
2018-07-10T16:18:09.761Z,5.97
2018-07-10T16:20:38.954Z,6.72
2018-07-10T16:23:08.496Z,6.05
2018-07-10T16:25:36.687Z,5.58
2018-07-10T16:28:15.727Z,6.55
2018-07-10T16:30:45.014Z,5.83
2018-07-10T16:33:16.232Z,6.17
2018-07-10T16:35:44.401Z,4.95
2018-07-10T16:38:12.570Z,4.53
2018-07-10T16:40:40.741Z,4.67
2018-07-10T16:43:14.460Z,4.35
2018-07-10T16:45:42.641Z,4.60
2018-07-10T16:49:17.988Z,4.15
2018-07-10T16:52:00.219Z,3.35
2018-07-10T16:54:28.394Z,3.35
2018-07-10T16:56:56.335Z,3.52
2018-07-10T16:59:24.942Z,2.72
2018-07-10T17:01:52.872Z,3.45
2018-07-10T17:04:21.049Z,2.55
2018-07-10T17:06:49.215Z,2.52
2018-07-10T17:09:17.486Z,2.58
2018-07-10T17:11:45.705Z,1.87
2018-07-10T17:14:14.014Z,2.10
2018-07-10T17:16:42.186Z,2.50
2018-07-10T17:19:10.401Z,2.45
2018-07-10T17:21:38.552Z,1.87
2018-07-10T17:24:06.769Z,2.15
2018-07-10T17:26:34.944Z,2.40
2018-07-10T17:29:06.549Z,2.60
2018-07-10T17:31:34.716Z,1.87
2018-07-10T17:34:02.941Z,2.40
2018-07-10T17:36:31.113Z,2.40
2018-07-10T17:38:59.918Z,2.02
2018-07-10T17:41:31.804Z,2.77
2018-07-10T17:44:00.869Z,2.55
2018-07-10T17:46:29.567Z,2.55
2018-07-10T17:48:57.732Z,2.50
2018-07-10T17:51:25.918Z,3.08
2018-07-10T17:53:54.130Z,2.60
2018-07-10T17:56:22.302Z,3.85
2018-07-10T17:58:50.464Z,2.72
2018-07-10T18:01:18.658Z,2.47
2018-07-10T18:03:47.295Z,1.77
2018-07-10T18:06:15.224Z,2.12
2018-07-10T18:08:43.611Z,1.70
2018-07-10T18:11:11.879Z,1.50
2018-07-10T18:13:40.211Z,1.40
2018-07-10T18:16:08.414Z,1.30
2018-07-10T18:18:36.998Z,1.30
2018-07-10T18:21:05.424Z,1.35
2018-07-10T18:23:34.277Z,1.12
2018-07-10T18:26:02.484Z,1.37
2018-07-10T18:28:30.674Z,1.10
2018-07-10T18:30:58.851Z,1.10
2018-07-10T18:33:27.032Z,1.02
2018-07-10T18:35:55.218Z,0.90
2018-07-10T18:38:23.781Z,0.88
2018-07-10T18:40:52.393Z,1.12
2018-07-10T18:43:20.568Z,0.85
2018-07-10T18:45:48.748Z,0.93
2018-07-10T18:48:21.911Z,0.80
2018-07-10T18:50:50.068Z,0.80
2018-07-10T18:53:18.557Z,0.78
2018-07-10T18:55:46.855Z,0.72
2018-07-10T18:58:32.999Z,0.90
2018-07-10T19:01:07.907Z,0.80
2018-07-10T19:03:36.614Z,0.70
2018-07-10T19:06:11.301Z,0.70
2018-07-10T19:08:41.545Z,0.70
2018-07-10T19:11:09.872Z,0.68
2018-07-10T19:13:38.489Z,0.53
2018-07-10T19:16:06.627Z,0.80
2018-07-10T19:18:34.841Z,0.80
2018-07-10T19:21:38.808Z,0.70
2018-07-10T19:24:12.658Z,0.70
2018-07-10T19:26:40.837Z,0.72
2018-07-10T19:29:15.200Z,0.75
2018-07-10T19:31:44.184Z,0.72
2018-07-10T19:34:12.345Z,0.78
2018-07-10T19:36:40.599Z,1.75
2018-07-10T19:39:08.762Z,1.92
2018-07-10T19:41:36.953Z,0.82
2018-07-10T19:44:05.119Z,1.27
2018-07-10T19:46:35.174Z,0.70
2018-07-10T19:49:04.800Z,0.72
2018-07-10T19:51:33.029Z,0.80
2018-07-10T19:54:07.973Z,0.60
2018-07-10T19:56:37.278Z,1.00
2018-07-10T19:59:06.805Z,0.75
2018-07-10T20:01:45.043Z,0.60
2018-07-10T20:04:25.158Z,0.80
2018-07-10T20:07:08.689Z,0.90
2018-07-10T20:09:44.926Z,0.72
2018-07-10T20:12:13.849Z,1.00
2018-07-10T20:14:55.384Z,0.80
2018-07-10T20:17:26.139Z,0.95
2018-07-10T20:19:57.377Z,0.90
2018-07-10T20:22:29.207Z,1.05
2018-07-10T20:25:04.314Z,0.98
2018-07-10T20:27:43.488Z,0.98
2018-07-10T20:30:36.248Z,1.10
2018-07-10T20:33:11.268Z,1.00
2018-07-10T20:35:42.133Z,1.00
2018-07-10T20:38:10.288Z,0.95
2018-07-10T20:40:40.547Z,1.20
2018-07-10T20:43:21.926Z,0.82
2018-07-10T20:45:54.111Z,1.05
2018-07-10T20:48:47.945Z,1.20
2018-07-10T20:51:16.668Z,1.20
2018-07-10T20:53:54.099Z,1.00
2018-07-10T20:56:31.849Z,0.90
2018-07-10T20:59:12.737Z,1.10
2018-07-10T21:01:44.075Z,1.30
2018-07-10T21:04:24.666Z,1.20
2018-07-10T21:06:57.870Z,1.00
2018-07-10T21:09:38.154Z,1.12
2018-07-10T21:12:16.459Z,1.42
2018-07-10T21:15:04.773Z,1.50
2018-07-10T21:17:42.189Z,1.42
2018-07-10T21:20:18.399Z,2.10
2018-07-10T21:23:03.661Z,2.20
2018-07-10T21:25:44.432Z,1.98
2018-07-10T21:28:24.747Z,1.82
2018-07-10T21:31:08.030Z,2.00
2018-07-10T21:33:43.294Z,2.05
2018-07-10T21:36:19.045Z,2.00
2018-07-10T21:39:29.629Z,1.57
2018-07-10T21:42:09.229Z,2.10
2018-07-10T21:44:46.538Z,2.25
2018-07-10T21:47:23.806Z,2.22
2018-07-10T21:49:54.051Z,2.08
2018-07-10T21:52:22.513Z,2.25
2018-07-10T21:54:50.788Z,2.10
2018-07-10T21:57:25.336Z,2.20
2018-07-10T21:59:56.005Z,2.22
2018-07-10T22:02:24.294Z,2.15
2018-07-10T22:04:55.695Z,2.17
2018-07-10T22:07:24.338Z,1.95
2018-07-10T22:09:53.667Z,2.20
2018-07-10T22:12:22.244Z,2.00
2018-07-10T22:14:50.470Z,2.30
2018-07-10T22:17:24.428Z,2.20
2018-07-10T22:19:53.726Z,2.22
2018-07-10T22:22:24.528Z,2.35
2018-07-10T22:24:53.587Z,2.65
2018-07-10T22:27:22.339Z,2.30
2018-07-10T22:29:58.219Z,2.90
2018-07-10T22:32:32.022Z,2.75
2018-07-10T22:35:00.174Z,2.80
2018-07-10T22:37:28.349Z,2.98
2018-07-10T22:39:56.495Z,2.52
2018-07-10T22:42:24.665Z,3.10
2018-07-10T22:44:54.974Z,3.08
2018-07-10T22:47:26.566Z,3.10
2018-07-10T22:49:55.237Z,3.45
2018-07-10T22:52:23.450Z,3.27
2018-07-10T22:54:51.590Z,3.33
2018-07-10T22:57:19.777Z,3.77
2018-07-10T22:59:48.062Z,3.50
2018-07-10T23:02:16.222Z,3.85
2018-07-10T23:04:44.347Z,4.25
2018-07-10T23:07:12.482Z,3.85
2018-07-10T23:09:40.630Z,3.80
2018-07-10T23:12:08.767Z,4.30
2018-07-10T23:14:36.914Z,3.42
2018-07-10T23:17:04.805Z,3.87
2018-07-10T23:19:33.156Z,3.70
2018-07-10T23:22:01.047Z,3.92
2018-07-10T23:24:29.961Z,4.00
2018-07-10T23:26:58.098Z,3.95
2018-07-10T23:29:29.110Z,3.35
2018-07-10T23:31:57.243Z,4.25
2018-07-10T23:34:25.386Z,3.80
2018-07-10T23:36:55.775Z,4.55
2018-07-10T23:39:29.824Z,4.72
2018-07-10T23:42:05.908Z,4.78
2018-07-10T23:44:44.365Z,4.20
2018-07-10T23:47:21.406Z,4.72
2018-07-10T23:49:54.233Z,4.95
2018-07-10T23:52:34.174Z,5.05
2018-07-10T23:55:02.338Z,4.97
2018-07-10T23:57:30.487Z,5.37
2018-07-10T23:59:58.642Z,4.83
